createdAt,value
2018-05-13T00:00:24.080Z,0
2018-05-13T00:01:24.795Z,0
2018-05-13T00:02:25.508Z,0
2018-05-13T00:03:26.223Z,0
2018-05-13T00:04:26.943Z,0
2018-05-13T00:05:27.653Z,0
2018-05-13T00:06:28.370Z,0
2018-05-13T00:07:29.085Z,0
2018-05-13T00:08:29.800Z,0
2018-05-13T00:09:30.524Z,0
2018-05-13T00:10:31.238Z,0
2018-05-13T00:11:31.954Z,0
2018-05-13T00:12:32.682Z,0
2018-05-13T00:13:33.397Z,0
2018-05-13T00:14:34.128Z,0
2018-05-13T00:15:34.840Z,0
2018-05-13T00:16:35.555Z,0
2018-05-13T00:17:36.280Z,0
2018-05-13T00:18:36.997Z,0
2018-05-13T00:19:37.714Z,0
2018-05-13T00:20:38.477Z,0
2018-05-13T00:21:39.145Z,0
2018-05-13T00:22:39.859Z,0
2018-05-13T00:23:40.575Z,0
2018-05-13T00:24:41.288Z,0
2018-05-13T00:25:42.004Z,0
2018-05-13T00:26:42.718Z,0
2018-05-13T00:27:43.434Z,0
2018-05-13T00:28:44.149Z,0
2018-05-13T00:29:44.864Z,0
2018-05-13T00:30:45.580Z,0
2018-05-13T00:31:46.311Z,0
2018-05-13T00:32:47.036Z,0
2018-05-13T00:33:47.750Z,0
2018-05-13T00:34:48.469Z,0
2018-05-13T00:35:49.184Z,0
2018-05-13T00:36:49.897Z,0
2018-05-13T00:37:50.614Z,0
2018-05-13T00:38:51.340Z,0
2018-05-13T00:39:52.054Z,0
2018-05-13T00:40:52.768Z,0
2018-05-13T00:41:53.483Z,0
2018-05-13T00:42:54.199Z,0
2018-05-13T00:43:54.911Z,0
2018-05-13T00:44:55.625Z,0
2018-05-13T00:45:56.355Z,0
2018-05-13T00:46:57.068Z,0
2018-05-13T00:47:57.785Z,0
2018-05-13T00:48:58.501Z,0
2018-05-13T00:49:59.231Z,0
2018-05-13T00:50:59.947Z,0
2018-05-13T00:52:00.665Z,0
2018-05-13T00:53:01.381Z,0
2018-05-13T00:54:02.097Z,0
2018-05-13T00:55:02.813Z,0
2018-05-13T00:56:03.527Z,0
2018-05-13T00:57:04.246Z,0
2018-05-13T00:58:04.963Z,0
2018-05-13T00:59:05.694Z,0
2018-05-13T01:00:06.425Z,0
2018-05-13T01:01:07.146Z,0
2018-05-13T01:02:07.858Z,0
2018-05-13T01:03:08.575Z,0
2018-05-13T01:04:09.303Z,0
2018-05-13T01:05:10.020Z,0
2018-05-13T01:06:10.738Z,0
2018-05-13T01:07:11.451Z,0
2018-05-13T01:08:12.168Z,0
2018-05-13T01:09:12.884Z,0
2018-05-13T01:10:13.601Z,0
2018-05-13T01:11:14.321Z,0
2018-05-13T01:12:15.034Z,0
2018-05-13T01:13:15.765Z,0
2018-05-13T01:14:16.481Z,0
2018-05-13T01:15:17.198Z,0
2018-05-13T01:16:17.925Z,0
2018-05-13T01:17:18.642Z,0
2018-05-13T01:18:19.359Z,0
2018-05-13T01:19:20.074Z,0
2018-05-13T01:20:20.807Z,0
2018-05-13T01:21:21.528Z,0
2018-05-13T01:22:22.253Z,0
2018-05-13T01:23:22.969Z,0
2018-05-13T01:24:23.701Z,0
2018-05-13T01:25:24.428Z,0
2018-05-13T01:26:25.144Z,0
2018-05-13T01:27:25.861Z,0
2018-05-13T01:28:26.577Z,0
2018-05-13T01:29:27.300Z,0
2018-05-13T01:30:28.022Z,0
2018-05-13T01:31:28.737Z,0
2018-05-13T01:32:29.457Z,0
2018-05-13T01:33:30.173Z,0
2018-05-13T01:34:30.897Z,0
2018-05-13T01:35:31.613Z,0
2018-05-13T01:36:32.342Z,0
2018-05-13T01:37:33.059Z,0
2018-05-13T01:38:33.775Z,0
2018-05-13T01:39:34.491Z,0
2018-05-13T01:40:35.207Z,0
2018-05-13T01:41:35.924Z,0
2018-05-13T01:42:36.641Z,0
2018-05-13T01:43:37.361Z,0
2018-05-13T01:44:38.076Z,0
2018-05-13T01:45:38.805Z,0
2018-05-13T01:46:39.533Z,0
2018-05-13T01:47:40.254Z,0
2018-05-13T01:48:40.970Z,0
2018-05-13T01:49:41.688Z,0
2018-05-13T01:50:42.412Z,0
2018-05-13T01:51:43.130Z,0
2018-05-13T01:52:43.858Z,0
2018-05-13T01:53:44.573Z,0
2018-05-13T01:54:45.290Z,0
2018-05-13T01:55:46.006Z,0
2018-05-13T01:56:46.727Z,0
2018-05-13T01:57:47.455Z,0
2018-05-13T01:58:48.170Z,0
2018-05-13T01:59:48.896Z,0
2018-05-13T02:00:49.628Z,0
2018-05-13T02:01:50.345Z,0
2018-05-13T02:02:51.072Z,0
2018-05-13T02:03:51.796Z,0
2018-05-13T02:04:52.505Z,0
2018-05-13T02:05:53.222Z,0
2018-05-13T02:06:53.937Z,0
2018-05-13T02:07:54.668Z,0
2018-05-13T02:08:55.389Z,0
2018-05-13T02:09:56.100Z,0
2018-05-13T02:10:56.815Z,0
2018-05-13T02:11:57.530Z,0
2018-05-13T02:12:58.257Z,0
2018-05-13T02:13:58.974Z,0
2018-05-13T02:14:59.692Z,0
2018-05-13T02:16:00.405Z,0
2018-05-13T02:17:01.136Z,0
2018-05-13T02:18:01.854Z,0
2018-05-13T02:19:02.573Z,0
2018-05-13T02:20:03.284Z,0
2018-05-13T02:21:03.999Z,0
2018-05-13T02:22:04.716Z,0
2018-05-13T02:23:05.432Z,0
2018-05-13T02:24:06.147Z,0
2018-05-13T02:25:06.861Z,0
2018-05-13T02:26:07.579Z,0
2018-05-13T02:27:08.306Z,0
2018-05-13T02:28:09.025Z,0
2018-05-13T02:29:09.738Z,0
2018-05-13T02:30:10.454Z,0
2018-05-13T02:31:11.169Z,0
2018-05-13T02:32:11.898Z,0
2018-05-13T02:33:12.613Z,0
2018-05-13T02:34:13.328Z,0
2018-05-13T02:35:14.042Z,0
2018-05-13T02:36:14.759Z,0
2018-05-13T02:37:15.473Z,0
2018-05-13T02:38:16.189Z,0
2018-05-13T02:39:16.918Z,0
2018-05-13T02:40:17.648Z,0
2018-05-13T02:41:18.382Z,0
2018-05-13T02:42:19.113Z,0
2018-05-13T02:43:19.823Z,0
2018-05-13T02:44:20.541Z,0
2018-05-13T02:45:21.272Z,0
2018-05-13T02:46:21.991Z,0
2018-05-13T02:47:22.717Z,0
2018-05-13T02:48:23.433Z,0
2018-05-13T02:49:24.149Z,0
2018-05-13T02:50:24.879Z,0
2018-05-13T02:51:25.595Z,0
2018-05-13T02:52:26.308Z,0
2018-05-13T02:53:27.026Z,0
2018-05-13T02:54:27.741Z,0
2018-05-13T02:55:28.456Z,0
2018-05-13T02:56:29.173Z,0
2018-05-13T02:57:29.890Z,0
2018-05-13T02:58:30.609Z,0
2018-05-13T02:59:31.327Z,0
2018-05-13T03:00:32.041Z,0
2018-05-13T03:01:32.758Z,0
2018-05-13T03:02:33.471Z,0
2018-05-13T03:03:34.187Z,0
2018-05-13T03:04:34.905Z,0
2018-05-13T03:05:35.622Z,0
2018-05-13T03:06:36.340Z,0
2018-05-13T03:07:37.056Z,0
2018-05-13T03:08:37.773Z,0
2018-05-13T03:09:38.489Z,0
2018-05-13T03:10:39.469Z,0
2018-05-13T03:11:40.197Z,0
2018-05-13T03:12:40.917Z,0
2018-05-13T03:13:41.628Z,0
2018-05-13T03:14:42.345Z,0
2018-05-13T03:15:43.063Z,0
2018-05-13T03:16:43.780Z,0
2018-05-13T03:17:44.500Z,0
2018-05-13T03:18:45.212Z,0
2018-05-13T03:19:45.928Z,0
2018-05-13T03:20:46.641Z,0
2018-05-13T03:21:47.362Z,0
2018-05-13T03:22:48.073Z,0
2018-05-13T03:23:48.787Z,0
2018-05-13T03:24:49.504Z,0
2018-05-13T03:25:50.219Z,0
2018-05-13T03:26:50.935Z,0
2018-05-13T03:27:51.652Z,0
2018-05-13T03:28:52.370Z,0
2018-05-13T03:29:53.088Z,0
2018-05-13T03:30:53.805Z,0
2018-05-13T03:31:54.520Z,0
2018-05-13T03:32:55.252Z,0
2018-05-13T03:33:55.970Z,0
2018-05-13T03:34:56.689Z,0
2018-05-13T03:35:57.401Z,0
2018-05-13T03:36:58.119Z,0
2018-05-13T03:37:58.838Z,0
2018-05-13T03:38:59.557Z,0
2018-05-13T03:40:00.273Z,0
2018-05-13T03:41:01.006Z,0
2018-05-13T03:42:01.722Z,0
2018-05-13T03:43:02.453Z,0
2018-05-13T03:44:03.168Z,0
2018-05-13T03:45:03.901Z,0
2018-05-13T03:46:04.618Z,0
2018-05-13T03:47:05.338Z,0
2018-05-13T03:48:06.066Z,0
2018-05-13T03:49:06.782Z,0
2018-05-13T03:50:07.500Z,0
2018-05-13T03:51:08.216Z,0
2018-05-13T03:52:08.935Z,0
2018-05-13T03:53:09.666Z,0
2018-05-13T03:54:10.381Z,0
2018-05-13T03:55:11.100Z,0
2018-05-13T03:56:11.819Z,0
2018-05-13T03:57:12.536Z,0
2018-05-13T03:58:13.254Z,0
2018-05-13T03:59:13.972Z,5
2018-05-13T04:00:14.703Z,5
2018-05-13T04:01:15.434Z,5
2018-05-13T04:02:16.168Z,5
2018-05-13T04:03:16.888Z,5
2018-05-13T04:04:17.604Z,5
2018-05-13T04:05:18.324Z,5
2018-05-13T04:06:19.042Z,5
2018-05-13T04:07:19.827Z,5
2018-05-13T04:08:20.487Z,5
2018-05-13T04:09:21.200Z,5
2018-05-13T04:10:21.922Z,5
2018-05-13T04:11:22.649Z,5
2018-05-13T04:12:23.388Z,5
2018-05-13T04:13:24.112Z,5
2018-05-13T04:14:24.845Z,5
2018-05-13T04:15:25.565Z,5
2018-05-13T04:16:26.282Z,5
2018-05-13T04:17:27.016Z,10
2018-05-13T04:18:27.736Z,10
2018-05-13T04:19:28.467Z,10
2018-05-13T04:20:29.185Z,5
2018-05-13T04:21:29.905Z,5
2018-05-13T04:22:30.627Z,5
2018-05-13T04:23:31.343Z,5
2018-05-13T04:24:32.078Z,5
2018-05-13T04:25:32.792Z,5
2018-05-13T04:26:33.510Z,5
2018-05-13T04:27:34.228Z,5
2018-05-13T04:28:34.947Z,5
2018-05-13T04:29:35.666Z,5
2018-05-13T04:30:36.397Z,5
2018-05-13T04:31:37.127Z,5
2018-05-13T04:32:37.860Z,5
2018-05-13T04:33:38.577Z,5
2018-05-13T04:34:39.294Z,5
2018-05-13T04:35:40.014Z,5
2018-05-13T04:36:40.736Z,5
2018-05-13T04:37:41.451Z,5
2018-05-13T04:38:42.170Z,5
2018-05-13T04:39:42.901Z,5
2018-05-13T04:40:43.617Z,5
2018-05-13T04:41:44.339Z,5
2018-05-13T04:42:45.067Z,5
2018-05-13T04:43:45.784Z,5
2018-05-13T04:44:46.503Z,5
2018-05-13T04:45:47.224Z,5
2018-05-13T04:46:47.943Z,10
2018-05-13T04:47:48.675Z,10
2018-05-13T04:48:49.393Z,10
2018-05-13T04:49:50.113Z,10
2018-05-13T04:50:50.848Z,10
2018-05-13T04:51:51.569Z,15
2018-05-13T04:52:52.304Z,15
2018-05-13T04:53:53.025Z,20
2018-05-13T04:54:53.744Z,25
2018-05-13T04:55:54.476Z,30
2018-05-13T04:56:55.218Z,35
2018-05-13T04:57:55.933Z,40
2018-05-13T04:58:56.653Z,40
2018-05-13T04:59:57.373Z,35
2018-05-13T05:00:58.094Z,35
2018-05-13T05:01:58.816Z,35
2018-05-13T05:02:59.534Z,30
2018-05-13T05:04:00.254Z,30
2018-05-13T05:05:00.973Z,30
2018-05-13T05:06:01.693Z,30
2018-05-13T05:07:02.429Z,30
2018-05-13T05:08:03.147Z,30
2018-05-13T05:09:03.873Z,30
2018-05-13T05:10:04.597Z,30
2018-05-13T05:11:05.317Z,30
2018-05-13T05:12:06.036Z,30
2018-05-13T05:13:06.755Z,35
2018-05-13T05:14:07.476Z,35
2018-05-13T05:15:08.197Z,35
2018-05-13T05:16:08.929Z,40
2018-05-13T05:17:09.654Z,40
2018-05-13T05:18:10.385Z,45
2018-05-13T05:19:11.105Z,45
2018-05-13T05:20:11.827Z,45
2018-05-13T05:21:12.551Z,50
2018-05-13T05:22:13.283Z,50
2018-05-13T05:23:14.004Z,50
2018-05-13T05:24:14.832Z,55
2018-05-13T05:25:15.459Z,60
2018-05-13T05:26:16.193Z,65
2018-05-13T05:27:16.914Z,65
2018-05-13T05:28:17.634Z,70
2018-05-13T05:29:18.370Z,75
2018-05-13T05:30:19.091Z,80
2018-05-13T05:31:19.817Z,85
2018-05-13T05:32:20.534Z,85
2018-05-13T05:33:21.254Z,85
2018-05-13T05:34:21.978Z,90
2018-05-13T05:35:22.696Z,90
2018-05-13T05:36:23.418Z,95
2018-05-13T05:37:24.155Z,95
2018-05-13T05:38:24.878Z,100
2018-05-13T05:39:25.615Z,105
2018-05-13T05:40:26.336Z,110
2018-05-13T05:41:27.060Z,120
2018-05-13T05:42:27.794Z,130
2018-05-13T05:43:28.510Z,130
2018-05-13T05:44:29.227Z,135
2018-05-13T05:45:29.952Z,135
2018-05-13T05:46:30.671Z,145
2018-05-13T05:47:31.394Z,145
2018-05-13T05:48:32.119Z,150
2018-05-13T05:49:32.842Z,150
2018-05-13T05:50:33.567Z,150
2018-05-13T05:51:34.288Z,150
2018-05-13T05:52:35.010Z,145
2018-05-13T05:53:35.748Z,145
2018-05-13T05:54:36.483Z,140
2018-05-13T05:55:37.208Z,135
2018-05-13T05:56:37.931Z,130
2018-05-13T05:57:38.654Z,130
2018-05-13T05:58:39.379Z,130
2018-05-13T05:59:40.102Z,130
2018-05-13T06:00:40.828Z,135
2018-05-13T06:01:41.551Z,140
2018-05-13T06:02:42.274Z,140
2018-05-13T06:03:42.997Z,145
2018-05-13T06:04:43.724Z,150
2018-05-13T06:05:44.445Z,155
2018-05-13T06:06:45.170Z,160
2018-05-13T06:07:45.907Z,170
2018-05-13T06:08:46.631Z,180
2018-05-13T06:09:47.356Z,185
2018-05-13T06:10:48.079Z,195
2018-05-13T06:11:48.805Z,195
2018-05-13T06:12:49.537Z,200
2018-05-13T06:13:50.263Z,200
2018-05-13T06:14:50.987Z,195
2018-05-13T06:15:51.727Z,190
2018-05-13T06:16:52.447Z,190
2018-05-13T06:17:53.174Z,185
2018-05-13T06:18:53.897Z,180
2018-05-13T06:19:54.621Z,180
2018-05-13T06:20:55.344Z,175
2018-05-13T06:21:56.084Z,175
2018-05-13T06:22:56.806Z,175
2018-05-13T06:23:57.542Z,180
2018-05-13T06:24:58.268Z,180
2018-05-13T06:25:58.991Z,180
2018-05-13T06:26:59.728Z,180
2018-05-13T06:28:00.452Z,180
2018-05-13T06:29:01.178Z,180
2018-05-13T06:30:01.913Z,190
2018-05-13T06:31:02.625Z,195
2018-05-13T06:32:03.350Z,200
2018-05-13T06:33:04.073Z,205
2018-05-13T06:34:04.797Z,205
2018-05-13T06:35:05.521Z,210
2018-05-13T06:36:06.260Z,210
2018-05-13T06:37:06.982Z,210
2018-05-13T06:38:07.708Z,210
2018-05-13T06:39:08.433Z,215
2018-05-13T06:40:09.157Z,205
2018-05-13T06:41:09.883Z,205
2018-05-13T06:42:10.607Z,200
2018-05-13T06:43:11.345Z,210
2018-05-13T06:44:12.069Z,215
2018-05-13T06:45:12.867Z,225
2018-05-13T06:46:13.526Z,225
2018-05-13T06:47:14.252Z,215
2018-05-13T06:48:14.977Z,210
2018-05-13T06:49:15.702Z,210
2018-05-13T06:50:16.425Z,200
2018-05-13T06:51:17.232Z,200
2018-05-13T06:52:17.872Z,210
2018-05-13T06:53:18.612Z,210
2018-05-13T06:54:19.333Z,215
2018-05-13T06:55:20.060Z,225
2018-05-13T06:56:20.782Z,230
2018-05-13T06:57:21.564Z,225
2018-05-13T06:58:22.235Z,230
2018-05-13T06:59:22.959Z,235
2018-05-13T07:00:23.683Z,245
2018-05-13T07:01:24.412Z,240
2018-05-13T07:02:25.144Z,245
2018-05-13T07:03:25.870Z,260
2018-05-13T07:04:26.596Z,280
2018-05-13T07:05:27.325Z,310
2018-05-13T07:06:28.054Z,320
2018-05-13T07:07:28.776Z,325
2018-05-13T07:08:29.520Z,355
2018-05-13T07:09:30.250Z,425
2018-05-13T07:10:30.978Z,505
2018-05-13T07:11:31.718Z,565
2018-05-13T07:12:32.451Z,600
2018-05-13T07:13:33.179Z,600
2018-05-13T07:14:33.913Z,605
2018-05-13T07:15:34.643Z,535
2018-05-13T07:16:35.376Z,730
2018-05-13T07:17:36.109Z,780
2018-05-13T07:18:36.841Z,740
2018-05-13T07:19:37.573Z,775
2018-05-13T07:20:38.305Z,825
2018-05-13T07:21:39.041Z,840
2018-05-13T07:22:39.773Z,860
2018-05-13T07:23:40.507Z,865
2018-05-13T07:24:41.240Z,830
2018-05-13T07:25:41.973Z,840
2018-05-13T07:26:42.708Z,835
2018-05-13T07:27:43.443Z,755
2018-05-13T07:28:44.181Z,775
2018-05-13T07:29:45.005Z,840
2018-05-13T07:30:45.661Z,875
2018-05-13T07:31:46.397Z,915
2018-05-13T07:32:47.128Z,880
2018-05-13T07:33:47.861Z,825
2018-05-13T07:34:48.611Z,820
2018-05-13T07:35:49.352Z,790
2018-05-13T07:36:50.103Z,1035
2018-05-13T07:37:50.832Z,1020
2018-05-13T07:38:51.580Z,975
2018-05-13T07:39:52.313Z,880
2018-05-13T07:40:53.046Z,940
2018-05-13T07:41:53.789Z,980
2018-05-13T07:42:54.525Z,995
2018-05-13T07:43:55.272Z,990
2018-05-13T07:44:56.005Z,965
2018-05-13T07:45:56.753Z,1000
2018-05-13T07:46:57.487Z,870
2018-05-13T07:47:58.219Z,865
2018-05-13T07:48:58.955Z,940
2018-05-13T07:49:59.689Z,945
2018-05-13T07:51:00.483Z,940
2018-05-13T07:52:01.162Z,965
2018-05-13T07:53:01.896Z,985
2018-05-13T07:54:02.631Z,1025
2018-05-13T07:55:03.379Z,1010
2018-05-13T07:56:04.115Z,980
2018-05-13T07:57:04.847Z,995
2018-05-13T07:58:05.580Z,1010
2018-05-13T07:59:06.327Z,975
2018-05-13T08:00:07.062Z,960
2018-05-13T08:01:07.796Z,935
2018-05-13T08:02:08.531Z,925
2018-05-13T08:03:09.265Z,990
2018-05-13T08:04:10.000Z,1105
2018-05-13T08:05:10.737Z,1065
2018-05-13T08:06:11.553Z,1055
2018-05-13T08:07:12.222Z,1050
2018-05-13T08:08:12.969Z,1190
2018-05-13T08:09:13.705Z,1175
2018-05-13T08:10:14.440Z,1120
2018-05-13T08:11:15.179Z,1080
2018-05-13T08:12:15.930Z,1040
2018-05-13T08:13:16.678Z,995
2018-05-13T08:14:17.432Z,1085
2018-05-13T08:15:18.168Z,905
2018-05-13T08:16:18.900Z,975
2018-05-13T08:17:19.634Z,970
2018-05-13T08:18:20.382Z,935
2018-05-13T08:19:21.119Z,955
2018-05-13T08:20:21.920Z,1000
2018-05-13T08:21:22.592Z,1050
2018-05-13T08:22:23.331Z,1030
2018-05-13T08:23:24.063Z,980
2018-05-13T08:24:24.814Z,1000
2018-05-13T08:25:25.566Z,1020
2018-05-13T08:26:26.300Z,1000
2018-05-13T08:27:27.036Z,1075
2018-05-13T08:28:27.769Z,1050
2018-05-13T08:29:28.518Z,915
2018-05-13T08:30:29.267Z,915
2018-05-13T08:31:30.005Z,1020
2018-05-13T08:32:30.741Z,1005
2018-05-13T08:33:31.476Z,1125
2018-05-13T08:34:32.212Z,1125
2018-05-13T08:35:32.951Z,1175
2018-05-13T08:36:33.696Z,1155
2018-05-13T08:37:34.433Z,1230
2018-05-13T08:38:35.193Z,1100
2018-05-13T08:39:35.919Z,1230
2018-05-13T08:40:36.671Z,1185
2018-05-13T08:41:37.407Z,1150
2018-05-13T08:42:38.163Z,1190
2018-05-13T08:43:38.895Z,1140
2018-05-13T08:44:39.633Z,1125
2018-05-13T08:45:40.368Z,1145
2018-05-13T08:46:41.106Z,1285
2018-05-13T08:47:41.847Z,1220
2018-05-13T08:48:42.580Z,1200
2018-05-13T08:49:43.316Z,1280
2018-05-13T08:50:44.050Z,1260
2018-05-13T08:51:44.804Z,1235
2018-05-13T08:52:45.538Z,1120
2018-05-13T08:53:46.274Z,1085
2018-05-13T08:54:47.013Z,1125
2018-05-13T08:55:47.762Z,1165
2018-05-13T08:56:48.501Z,1235
2018-05-13T08:57:49.238Z,1290
2018-05-13T08:58:49.984Z,1270
2018-05-13T08:59:50.732Z,1295
2018-05-13T09:00:51.472Z,1395
2018-05-13T09:01:52.209Z,1425
2018-05-13T09:02:52.947Z,1440
2018-05-13T09:03:53.684Z,1515
2018-05-13T09:04:54.424Z,1520
2018-05-13T09:05:55.187Z,1480
2018-05-13T09:06:55.937Z,1490
2018-05-13T09:07:56.694Z,1505
2018-05-13T09:08:57.438Z,1525
2018-05-13T09:09:58.179Z,1495
2018-05-13T09:10:58.943Z,1485
2018-05-13T09:11:59.696Z,1515
2018-05-13T09:13:00.443Z,1510
2018-05-13T09:14:01.227Z,1525
2018-05-13T09:15:01.941Z,1510
2018-05-13T09:16:02.697Z,1525
2018-05-13T09:17:03.444Z,1530
2018-05-13T09:18:04.193Z,1580
2018-05-13T09:19:04.941Z,1675
2018-05-13T09:20:05.703Z,1710
2018-05-13T09:21:06.452Z,1735
2018-05-13T09:22:07.198Z,1700
2018-05-13T09:23:07.960Z,655
2018-05-13T09:24:08.709Z,1280
2018-05-13T09:25:09.460Z,1400
2018-05-13T09:26:10.206Z,1450
2018-05-13T09:27:10.965Z,1190
2018-05-13T09:28:11.713Z,1680
2018-05-13T09:29:12.458Z,1475
2018-05-13T09:30:13.200Z,1600
2018-05-13T09:31:13.946Z,1600
2018-05-13T09:32:14.691Z,1590
2018-05-13T09:33:15.433Z,1575
2018-05-13T09:34:16.182Z,1615
2018-05-13T09:35:16.951Z,1560
2018-05-13T09:36:17.682Z,1540
2018-05-13T09:37:18.429Z,1605
2018-05-13T09:38:19.171Z,1640
2018-05-13T09:39:19.930Z,1660
2018-05-13T09:40:20.673Z,1725
2018-05-13T09:41:21.419Z,1715
2018-05-13T09:42:22.162Z,1680
2018-05-13T09:43:22.909Z,1635
2018-05-13T09:44:23.654Z,1435
2018-05-13T09:45:24.399Z,1680
2018-05-13T09:46:25.157Z,1620
2018-05-13T09:47:25.899Z,1780
2018-05-13T09:48:26.645Z,1630
2018-05-13T09:49:27.392Z,1630
2018-05-13T09:50:28.134Z,1580
2018-05-13T09:51:28.887Z,1745
2018-05-13T09:52:29.622Z,1740
2018-05-13T09:53:30.363Z,1810
2018-05-13T09:54:31.108Z,1315
2018-05-13T09:55:31.853Z,1125
2018-05-13T09:56:32.607Z,1135
2018-05-13T09:57:33.362Z,995
2018-05-13T09:58:34.097Z,1140
2018-05-13T09:59:34.856Z,1285
2018-05-13T10:00:35.602Z,1410
2018-05-13T10:01:36.364Z,1240
2018-05-13T10:02:37.107Z,1235
2018-05-13T10:03:37.851Z,1840
2018-05-13T10:04:38.594Z,1750
2018-05-13T10:05:39.335Z,1775
2018-05-13T10:06:40.080Z,1865
2018-05-13T10:07:40.827Z,1930
2018-05-13T10:08:41.571Z,1960
2018-05-13T10:09:42.312Z,1940
2018-05-13T10:10:43.053Z,1895
2018-05-13T10:11:43.810Z,1815
2018-05-13T10:12:44.554Z,1665
2018-05-13T10:13:45.298Z,1690
2018-05-13T10:14:46.043Z,1905
2018-05-13T10:15:46.806Z,1530
2018-05-13T10:16:47.562Z,1575
2018-05-13T10:17:48.309Z,1650
2018-05-13T10:18:49.047Z,1540
2018-05-13T10:19:49.792Z,1445
2018-05-13T10:20:50.534Z,1590
2018-05-13T10:21:51.298Z,1880
2018-05-13T10:22:52.050Z,1840
2018-05-13T10:23:52.804Z,1925
2018-05-13T10:24:53.566Z,1855
2018-05-13T10:25:54.317Z,1655
2018-05-13T10:26:55.083Z,1865
2018-05-13T10:27:55.816Z,1895
2018-05-13T10:28:56.559Z,1960
2018-05-13T10:29:57.300Z,1870
2018-05-13T10:30:58.040Z,1665
2018-05-13T10:31:58.779Z,1940
2018-05-13T10:32:59.532Z,1995
2018-05-13T10:34:00.275Z,1855
2018-05-13T10:35:01.031Z,1780
2018-05-13T10:36:01.772Z,1815
2018-05-13T10:37:02.513Z,1830
2018-05-13T10:38:03.255Z,1945
2018-05-13T10:39:03.997Z,1855
2018-05-13T10:40:04.737Z,1775
2018-05-13T10:41:05.480Z,1990
2018-05-13T10:42:06.220Z,1890
2018-05-13T10:43:06.961Z,1850
2018-05-13T10:44:07.706Z,1865
2018-05-13T10:45:08.458Z,2060
2018-05-13T10:46:09.200Z,1895
2018-05-13T10:47:09.941Z,1745
2018-05-13T10:48:10.683Z,1400
2018-05-13T10:49:11.424Z,1610
2018-05-13T10:50:12.165Z,1880
2018-05-13T10:51:12.905Z,1915
2018-05-13T10:52:13.650Z,1320
2018-05-13T10:53:14.398Z,1205
2018-05-13T10:54:15.154Z,1805
2018-05-13T10:55:15.908Z,1885
2018-05-13T10:56:16.648Z,1220
2018-05-13T10:57:17.402Z,2065
2018-05-13T10:58:18.156Z,2035
2018-05-13T10:59:18.901Z,1930
2018-05-13T11:00:19.638Z,1815
2018-05-13T11:01:20.386Z,1775
2018-05-13T11:02:21.120Z,1900
2018-05-13T11:03:21.862Z,1890
2018-05-13T11:04:22.601Z,1955
2018-05-13T11:05:23.346Z,2010
2018-05-13T11:06:24.086Z,2040
2018-05-13T11:07:24.839Z,2020
2018-05-13T11:08:25.585Z,2085
2018-05-13T11:09:26.336Z,2080
2018-05-13T11:10:27.076Z,1985
2018-05-13T11:11:27.831Z,1875
2018-05-13T11:12:28.573Z,2010
2018-05-13T11:13:29.313Z,2075
2018-05-13T11:14:30.054Z,2090
2018-05-13T11:15:30.797Z,2025
2018-05-13T11:16:31.538Z,1965
2018-05-13T11:17:32.281Z,1980
2018-05-13T11:18:33.020Z,1975
2018-05-13T11:19:33.765Z,1875
2018-05-13T11:20:34.563Z,1770
2018-05-13T11:21:35.261Z,1960
2018-05-13T11:22:36.008Z,2020
2018-05-13T11:23:36.759Z,1945
2018-05-13T11:24:37.501Z,1920
2018-05-13T11:25:38.245Z,1885
2018-05-13T11:26:38.985Z,1875
2018-05-13T11:27:39.727Z,1905
2018-05-13T11:28:40.469Z,1890
2018-05-13T11:29:41.212Z,1895
2018-05-13T11:30:41.953Z,1860
2018-05-13T11:31:42.696Z,1965
2018-05-13T11:32:43.440Z,2000
2018-05-13T11:33:44.266Z,1970
2018-05-13T11:34:44.922Z,1890
2018-05-13T11:35:45.678Z,1850
2018-05-13T11:36:46.420Z,1800
2018-05-13T11:37:47.179Z,1820
2018-05-13T11:38:47.931Z,1825
2018-05-13T11:39:48.717Z,1750
2018-05-13T11:40:49.415Z,1765
2018-05-13T11:41:50.155Z,1790
2018-05-13T11:42:50.901Z,1835
2018-05-13T11:43:51.654Z,1890
2018-05-13T11:44:52.397Z,1900
2018-05-13T11:45:53.142Z,1890
2018-05-13T11:46:53.893Z,1875
2018-05-13T11:47:54.634Z,1880
2018-05-13T11:48:55.376Z,1345
2018-05-13T11:49:56.128Z,1240
2018-05-13T11:50:56.884Z,1360
2018-05-13T11:51:57.626Z,1390
2018-05-13T11:52:58.368Z,1355
2018-05-13T11:53:59.108Z,770
2018-05-13T11:54:59.848Z,920
2018-05-13T11:56:00.587Z,980
2018-05-13T11:57:01.330Z,1815
2018-05-13T11:58:02.082Z,1720
2018-05-13T11:59:02.821Z,1525
2018-05-13T12:00:03.563Z,1455
2018-05-13T12:01:04.318Z,1495
2018-05-13T12:02:05.143Z,1600
2018-05-13T12:03:05.795Z,970
2018-05-13T12:04:06.532Z,985
2018-05-13T12:05:07.281Z,910
2018-05-13T12:06:08.017Z,1390
2018-05-13T12:07:08.761Z,1040
2018-05-13T12:08:09.501Z,1455
2018-05-13T12:09:10.246Z,1610
2018-05-13T12:10:10.984Z,1450
2018-05-13T12:11:11.743Z,1610
2018-05-13T12:12:12.486Z,1540
2018-05-13T12:13:13.248Z,1430
2018-05-13T12:14:13.984Z,1245
2018-05-13T12:15:14.794Z,1405
2018-05-13T12:16:15.476Z,1270
2018-05-13T12:17:16.229Z,1315
2018-05-13T12:18:16.985Z,1005
2018-05-13T12:19:17.740Z,815
2018-05-13T12:20:18.480Z,1670
2018-05-13T12:21:19.221Z,1690
2018-05-13T12:22:19.958Z,915
2018-05-13T12:23:20.698Z,770
2018-05-13T12:24:21.440Z,575
2018-05-13T12:25:22.184Z,455
2018-05-13T12:26:22.926Z,345
2018-05-13T12:27:23.666Z,275
2018-05-13T12:28:24.419Z,240
2018-05-13T12:29:25.161Z,225
2018-05-13T12:30:25.900Z,220
2018-05-13T12:31:26.640Z,225
2018-05-13T12:32:27.379Z,235
2018-05-13T12:33:28.125Z,260
2018-05-13T12:34:28.868Z,295
2018-05-13T12:35:29.612Z,370
2018-05-13T12:36:30.368Z,465
2018-05-13T12:37:31.128Z,1330
2018-05-13T12:38:31.873Z,1190
2018-05-13T12:39:32.626Z,1425
2018-05-13T12:40:33.366Z,685
2018-05-13T12:41:34.103Z,670
2018-05-13T12:42:34.837Z,1250
2018-05-13T12:43:35.585Z,1285
2018-05-13T12:44:36.325Z,730
2018-05-13T12:45:37.070Z,1000
2018-05-13T12:46:37.803Z,805
2018-05-13T12:47:38.543Z,1230
2018-05-13T12:48:39.273Z,905
2018-05-13T12:49:40.023Z,1310
2018-05-13T12:50:40.756Z,845
2018-05-13T12:51:41.497Z,1160
2018-05-13T12:52:42.240Z,1230
2018-05-13T12:53:42.975Z,1405
2018-05-13T12:54:43.709Z,1300
2018-05-13T12:55:44.458Z,1040
2018-05-13T12:56:45.194Z,1020
2018-05-13T12:57:45.942Z,665
2018-05-13T12:58:46.674Z,915
2018-05-13T12:59:47.410Z,975
2018-05-13T13:00:48.140Z,635
2018-05-13T13:01:48.888Z,615
2018-05-13T13:02:49.623Z,550
2018-05-13T13:03:50.376Z,410
2018-05-13T13:04:51.091Z,290
2018-05-13T13:05:51.819Z,205
2018-05-13T13:06:52.550Z,175
2018-05-13T13:07:53.283Z,165
2018-05-13T13:08:54.015Z,150
2018-05-13T13:09:54.743Z,150
2018-05-13T13:10:55.474Z,145
2018-05-13T13:11:56.202Z,160
2018-05-13T13:12:57.004Z,135
2018-05-13T13:13:57.661Z,110
2018-05-13T13:14:58.389Z,95
2018-05-13T13:15:59.115Z,80
2018-05-13T13:16:59.847Z,60
2018-05-13T13:18:00.586Z,45
2018-05-13T13:19:01.325Z,30
2018-05-13T13:20:02.121Z,20
2018-05-13T13:21:02.774Z,20
2018-05-13T13:22:03.504Z,20
2018-05-13T13:23:04.225Z,20
2018-05-13T13:24:04.953Z,20
2018-05-13T13:25:05.677Z,20
2018-05-13T13:26:06.405Z,20
2018-05-13T13:27:07.133Z,25
2018-05-13T13:28:07.862Z,25
2018-05-13T13:29:08.605Z,30
2018-05-13T13:30:09.332Z,35
2018-05-13T13:31:10.062Z,35
2018-05-13T13:32:10.789Z,40
2018-05-13T13:33:11.516Z,45
2018-05-13T13:34:12.247Z,45
2018-05-13T13:35:12.989Z,50
2018-05-13T13:36:13.709Z,50
2018-05-13T13:37:14.435Z,50
2018-05-13T13:38:15.160Z,55
2018-05-13T13:39:15.886Z,55
2018-05-13T13:40:16.610Z,55
2018-05-13T13:41:17.333Z,55
2018-05-13T13:42:18.058Z,60
2018-05-13T13:43:18.781Z,60
2018-05-13T13:44:19.506Z,60
2018-05-13T13:45:20.238Z,65
2018-05-13T13:46:20.955Z,70
2018-05-13T13:47:21.719Z,75
2018-05-13T13:48:22.396Z,75
2018-05-13T13:49:23.136Z,80
2018-05-13T13:50:23.856Z,85
2018-05-13T13:51:24.584Z,90
2018-05-13T13:52:25.303Z,95
2018-05-13T13:53:26.060Z,100
2018-05-13T13:54:26.750Z,100
2018-05-13T13:55:27.473Z,105
2018-05-13T13:56:28.197Z,100
2018-05-13T13:57:28.920Z,95
2018-05-13T13:58:29.658Z,90
2018-05-13T13:59:30.426Z,85
2018-05-13T14:00:31.115Z,85
2018-05-13T14:01:31.840Z,80
2018-05-13T14:02:32.563Z,80
2018-05-13T14:03:33.285Z,85
2018-05-13T14:04:34.021Z,85
2018-05-13T14:05:34.748Z,80
2018-05-13T14:06:35.466Z,75
2018-05-13T14:07:36.200Z,65
2018-05-13T14:08:36.939Z,60
2018-05-13T14:09:37.659Z,55
2018-05-13T14:10:38.447Z,45